Time;durP1;ratioP1;P1;durP2;ratioP2;P2;SDS_P1;SDS_P2;PMS_P1;PMS_P2;Temp;Humidity;BMP_temperature;BMP_pressure;BME280_temperature;BME280_humidity;BME280_pressure;Samples;Min_cycle;Max_cycle;Signal;HPM_P1;HPM_P2
2021/03/14 00:00:53;;;;;;;10.00;1.50;;;6.70;99.90;;;;;;5046290;28;20047;-63
2021/03/14 00:03:21;;;;;;;18.02;2.53;;;6.70;99.90;;;;;;5042288;28;20047;-62
2021/03/14 00:05:47;;;;;;;15.93;1.95;;;6.70;99.90;;;;;;5050470;28;20044;-62
2021/03/14 00:08:14;;;;;;;14.73;2.95;;;6.70;99.90;;;;;;5044655;28;20021;-63
2021/03/14 00:10:43;;;;;;;15.27;1.90;;;6.80;99.90;;;;;;5044454;28;20025;-63
2021/03/14 00:13:10;;;;;;;15.48;2.20;;;6.80;99.90;;;;;;5059184;28;20028;-63
2021/03/14 00:15:36;;;;;;;10.13;1.80;;;6.80;99.90;;;;;;5041875;28;20031;-65
2021/03/14 00:18:02;;;;;;;17.60;1.70;;;6.80;99.90;;;;;;5048957;28;20033;-63
2021/03/14 00:20:28;;;;;;;11.55;2.15;;;6.80;99.90;;;;;;5046302;28;20036;-62
2021/03/14 00:22:53;;;;;;;16.52;1.75;;;6.80;99.90;;;;;;5046347;28;20041;-63
2021/03/14 00:25:19;;;;;;;11.65;2.40;;;6.80;99.90;;;;;;5048957;28;20344;-61
2021/03/14 00:27:45;;;;;;;10.60;1.85;;;6.80;99.90;;;;;;5047908;28;20085;-61
2021/03/14 00:30:14;;;;;;;17.17;2.03;;;6.80;99.90;;;;;;5048741;28;20025;-62
2021/03/14 00:32:39;;;;;;;12.38;2.35;;;6.80;99.90;;;;;;5051587;28;20093;-62
2021/03/14 00:35:08;;;;;;;11.75;2.25;;;6.70;99.90;;;;;;5053363;28;20123;-62
2021/03/14 00:37:33;;;;;;;17.00;2.20;;;6.80;99.90;;;;;;5055902;28;20430;-63
2021/03/14 00:39:59;;;;;;;12.30;2.22;;;6.80;99.90;;;;;;5049955;28;20025;-62
2021/03/14 00:42:24;;;;;;;9.93;2.33;;;6.80;99.90;;;;;;5044372;28;20121;-62
2021/03/14 00:44:50;;;;;;;24.92;2.17;;;6.80;99.90;;;;;;5048534;28;20040;-62
2021/03/14 00:47:15;;;;;;;10.80;2.92;;;6.80;99.90;;;;;;5057927;28;20037;-62
2021/03/14 00:49:41;;;;;;;13.98;2.15;;;6.70;99.90;;;;;;5046712;28;20025;-61
2021/03/14 00:52:06;;;;;;;18.38;2.05;;;6.70;99.90;;;;;;5046104;28;20028;-60
2021/03/14 00:54:35;;;;;;;15.18;2.17;;;6.70;99.90;;;;;;5048600;28;20032;-60
2021/03/14 00:57:01;;;;;;;15.77;1.80;;;6.60;99.90;;;;;;5048564;28;20148;-63
2021/03/14 00:59:26;;;;;;;17.85;2.08;;;6.60;99.90;;;;;;5047130;28;20112;-62
2021/03/14 01:01:52;;;;;;;13.65;2.83;;;6.60;99.90;;;;;;5036050;28;20072;-62
2021/03/14 01:04:18;;;;;;;19.77;2.60;;;6.60;99.90;;;;;;5038602;28;20046;-62
2021/03/14 01:06:43;;;;;;;19.33;2.15;;;6.60;99.90;;;;;;5046036;28;20033;-62
2021/03/14 01:09:09;;;;;;;14.98;2.50;;;6.50;99.90;;;;;;5050804;28;20036;-61
2021/03/14 01:11:35;;;;;;;13.57;2.28;;;6.60;99.90;;;;;;5054085;28;20043;-62
2021/03/14 01:14:00;;;;;;;17.23;2.10;;;6.50;99.90;;;;;;5055154;28;20040;-61
2021/03/14 01:16:26;;;;;;;19.35;2.30;;;6.50;99.90;;;;;;5052751;28;20066;-62
2021/03/14 01:18:51;;;;;;;11.38;2.22;;;6.40;99.90;;;;;;5047928;28;20113;-64
2021/03/14 01:21:17;;;;;;;23.70;2.15;;;6.30;99.90;;;;;;5050492;28;20865;-61
2021/03/14 01:23:42;;;;;;;13.57;2.25;;;6.40;99.90;;;;;;5052731;28;20091;-63
2021/03/14 01:26:08;;;;;;;12.20;1.48;;;6.30;99.90;;;;;;5050575;28;20496;-61
2021/03/14 01:28:34;;;;;;;14.60;2.20;;;6.20;99.90;;;;;;5042430;28;20032;-61
2021/03/14 01:31:01;;;;;;;10.02;1.70;;;6.20;99.90;;;;;;5059188;28;20032;-61
2021/03/14 01:33:26;;;;;;;19.20;2.30;;;6.20;99.90;;;;;;5062187;28;20033;-61
2021/03/14 01:35:52;;;;;;;18.40;2.20;;;6.20;99.90;;;;;;5057143;28;20029;-62
2021/03/14 01:38:17;;;;;;;10.95;2.40;;;6.20;99.90;;;;;;5062065;28;20470;-60
2021/03/14 01:40:43;;;;;;;20.25;2.30;;;6.10;99.90;;;;;;5068850;28;21364;-62
2021/03/14 01:43:09;;;;;;;16.38;2.15;;;6.10;99.90;;;;;;5063065;28;20017;-62
2021/03/14 01:45:34;;;;;;;27.33;3.03;;;6.00;99.90;;;;;;5066746;28;20043;-63
2021/03/14 01:48:03;;;;;;;13.15;1.75;;;5.90;99.90;;;;;;5075386;28;20048;-61
2021/03/14 01:50:30;;;;;;;13.60;1.58;;;5.90;99.90;;;;;;5066858;28;20032;-62
2021/03/14 01:52:56;;;;;;;15.25;1.70;;;5.90;99.90;;;;;;5056738;28;20049;-63
2021/03/14 01:55:23;;;;;;;16.00;2.20;;;5.90;99.90;;;;;;5070373;28;20052;-64
2021/03/14 01:57:49;;;;;;;12.38;1.95;;;5.90;99.90;;;;;;5059410;28;20160;-62
2021/03/14 02:00:17;;;;;;;16.83;2.08;;;5.90;99.90;;;;;;5064576;28;20548;-61
2021/03/14 02:02:44;;;;;;;13.77;2.33;;;5.90;99.90;;;;;;5070963;28;20033;-63
2021/03/14 02:05:12;;;;;;;24.10;2.63;;;5.90;99.90;;;;;;5051491;28;20410;-62
2021/03/14 02:07:40;;;;;;;13.38;2.55;;;5.90;99.90;;;;;;5064734;28;20665;-63
2021/03/14 02:10:07;;;;;;;22.15;2.65;;;5.90;99.90;;;;;;5055636;28;20621;-61
2021/03/14 02:12:55;;;;;;;16.13;1.92;;;5.90;99.90;;;;;;5062923;28;20482;-63
2021/03/14 02:15:22;;;;;;;15.35;2.30;;;5.90;99.90;;;;;;5054874;28;20056;-62
2021/03/14 02:17:49;;;;;;;11.45;2.65;;;5.90;99.90;;;;;;5060284;28;20083;-65
2021/03/14 02:20:18;;;;;;;11.70;2.13;;;6.00;99.90;;;;;;5064303;28;20048;-61
2021/03/14 02:22:46;;;;;;;16.27;2.25;;;6.00;99.90;;;;;;5050605;28;20355;-61
2021/03/14 02:25:29;;;;;;;7.80;1.88;;;6.00;99.90;;;;;;5052207;28;20042;-62
2021/03/14 02:27:55;;;;;;;14.20;2.60;;;6.00;99.90;;;;;;5029019;28;20435;-62
2021/03/14 02:30:22;;;;;;;11.82;1.98;;;6.00;99.90;;;;;;5050070;28;20040;-62
2021/03/14 02:32:48;;;;;;;14.23;1.80;;;6.00;99.90;;;;;;5057814;28;20026;-62
2021/03/14 02:35:15;;;;;;;11.35;1.90;;;6.00;99.90;;;;;;5055205;28;20156;-63
2021/03/14 02:37:42;;;;;;;13.57;1.95;;;6.00;99.90;;;;;;5039651;28;20057;-63
2021/03/14 02:40:08;;;;;;;12.27;1.73;;;5.90;99.90;;;;;;5043801;28;20089;-62
2021/03/14 02:42:36;;;;;;;10.90;1.48;;;5.90;99.90;;;;;;5037287;28;20029;-63
2021/03/14 02:45:03;;;;;;;14.07;2.22;;;5.90;99.90;;;;;;5046858;28;20031;-63
2021/03/14 02:47:30;;;;;;;9.40;2.00;;;5.90;99.90;;;;;;5050652;28;20033;-62
2021/03/14 02:49:56;;;;;;;14.25;1.83;;;5.90;99.90;;;;;;5052089;28;20446;-62
2021/03/14 02:52:23;;;;;;;12.13;3.20;;;6.00;99.90;;;;;;5053162;28;20033;-62
2021/03/14 02:54:50;;;;;;;17.77;2.55;;;6.00;99.90;;;;;;5063485;28;20288;-63
2021/03/14 02:57:20;;;;;;;15.35;2.05;;;6.00;99.90;;;;;;5060093;28;20017;-61
2021/03/14 02:59:50;;;;;;;12.57;1.98;;;6.00;99.90;;;;;;5059836;28;20017;-62
2021/03/14 03:02:17;;;;;;;12.98;2.35;;;6.00;99.90;;;;;;5060452;28;20534;-62
2021/03/14 03:04:43;;;;;;;15.43;2.40;;;6.00;99.90;;;;;;5057040;28;20032;-62
2021/03/14 03:07:09;;;;;;;15.00;2.40;;;6.00;99.90;;;;;;5038477;28;20024;-62
2021/03/14 03:09:35;;;;;;;17.65;1.90;;;6.00;99.90;;;;;;5064228;28;20606;-61
2021/03/14 03:12:01;;;;;;;10.85;1.88;;;6.00;99.90;;;;;;5050388;28;20065;-62
2021/03/14 03:14:29;;;;;;;17.20;2.97;;;6.00;99.90;;;;;;5053246;28;20029;-62
2021/03/14 03:16:56;;;;;;;22.27;2.20;;;6.00;99.90;;;;;;5040372;28;20063;-62
2021/03/14 03:19:22;;;;;;;15.32;2.72;;;6.00;99.90;;;;;;5043980;28;20026;-61
2021/03/14 03:21:49;;;;;;;13.20;1.98;;;5.90;99.90;;;;;;5027413;28;20047;-61
2021/03/14 03:24:15;;;;;;;21.05;2.83;;;5.90;99.90;;;;;;5048028;28;20384;-62
2021/03/14 03:26:43;;;;;;;15.02;1.80;;;5.90;99.90;;;;;;5047139;28;20025;-61
2021/03/14 03:29:09;;;;;;;15.75;2.05;;;5.90;99.90;;;;;;5057205;28;20121;-62
2021/03/14 03:31:35;;;;;;;25.65;3.00;;;5.90;99.90;;;;;;5049202;28;20064;-62
2021/03/14 03:34:01;;;;;;;14.50;1.65;;;5.90;99.90;;;;;;5042622;28;20462;-61
2021/03/14 03:36:27;;;;;;;12.07;1.75;;;5.90;99.90;;;;;;5054654;28;20152;-62
2021/03/14 03:38:52;;;;;;;19.75;2.65;;;5.90;99.90;;;;;;5061805;28;20562;-62
2021/03/14 03:41:18;;;;;;;18.27;2.15;;;5.80;99.90;;;;;;5042028;28;20033;-62
2021/03/14 03:43:45;;;;;;;9.30;2.05;;;5.80;99.90;;;;;;5050859;28;20025;-61
2021/03/14 03:46:14;;;;;;;13.80;2.13;;;5.80;99.90;;;;;;5060031;28;20558;-62
2021/03/14 03:48:46;;;;;;;16.40;2.97;;;5.80;99.90;;;;;;5044308;28;20021;-64
2021/03/14 03:51:14;;;;;;;15.98;2.05;;;5.80;99.90;;;;;;5049624;28;20059;-63
2021/03/14 03:53:41;;;;;;;9.32;2.00;;;5.80;99.90;;;;;;5050396;28;20036;-62
2021/03/14 03:56:09;;;;;;;12.60;2.08;;;5.90;99.90;;;;;;5058657;28;20090;-61
2021/03/14 03:58:35;;;;;;;9.20;1.60;;;5.80;99.90;;;;;;5061670;28;20042;-61
2021/03/14 04:01:03;;;;;;;10.20;2.30;;;5.90;99.90;;;;;;5052211;28;20016;-61
2021/03/14 04:03:34;;;;;;;18.55;2.60;;;5.90;99.90;;;;;;5038518;28;20527;-62
2021/03/14 04:06:00;;;;;;;11.95;1.80;;;5.90;99.90;;;;;;5029267;28;20022;-61
2021/03/14 04:08:29;;;;;;;14.65;2.10;;;5.80;99.90;;;;;;5044575;28;20880;-62
2021/03/14 04:10:55;;;;;;;11.30;1.80;;;5.80;99.90;;;;;;5045258;28;20040;-62
2021/03/14 04:13:21;;;;;;;17.05;1.95;;;5.80;99.90;;;;;;5051519;28;20029;-63
2021/03/14 04:15:46;;;;;;;12.80;2.10;;;5.90;99.90;;;;;;5049626;28;20089;-61
2021/03/14 04:18:12;;;;;;;15.38;2.38;;;5.90;99.90;;;;;;5045141;28;20025;-62
2021/03/14 04:20:40;;;;;;;13.70;2.13;;;5.90;99.90;;;;;;5047942;28;20029;-63
2021/03/14 04:23:15;;;;;;;13.35;1.88;;;5.90;99.90;;;;;;5043800;28;20025;-62
2021/03/14 04:25:43;;;;;;;16.55;2.10;;;5.90;99.90;;;;;;5056251;28;20213;-62
2021/03/14 04:28:10;;;;;;;7.72;1.58;;;5.90;99.90;;;;;;5058437;28;20401;-62
2021/03/14 04:30:37;;;;;;;18.08;2.65;;;5.80;99.90;;;;;;5047866;28;20031;-61
2021/03/14 04:33:04;;;;;;;12.60;2.35;;;5.80;99.90;;;;;;5035055;28;20029;-61
2021/03/14 04:35:30;;;;;;;9.05;1.80;;;5.90;99.90;;;;;;5050227;28;20031;-61
2021/03/14 04:37:56;;;;;;;16.65;2.72;;;5.80;99.90;;;;;;5062278;28;20025;-62
2021/03/14 04:40:22;;;;;;;9.70;1.73;;;5.90;99.90;;;;;;5049723;28;20021;-62
2021/03/14 04:42:51;;;;;;;13.85;2.08;;;5.90;99.90;;;;;;5050912;28;20029;-62
2021/03/14 04:45:18;;;;;;;18.08;2.55;;;5.90;99.90;;;;;;5048504;28;20127;-60
2021/03/14 04:47:45;;;;;;;15.98;2.25;;;5.90;99.90;;;;;;5067799;28;20504;-61
2021/03/14 04:50:13;;;;;;;8.88;1.73;;;5.90;99.90;;;;;;5049389;28;20028;-63
2021/03/14 04:52:40;;;;;;;12.57;2.53;;;5.90;99.90;;;;;;5045250;28;20033;-62
2021/03/14 04:55:09;;;;;;;21.00;1.98;;;6.00;99.90;;;;;;5050471;28;20045;-61
2021/03/14 04:57:37;;;;;;;15.13;1.75;;;5.90;99.90;;;;;;5054673;28;20017;-63
2021/03/14 05:00:07;;;;;;;16.13;2.30;;;6.00;99.90;;;;;;5055074;28;20025;-63
2021/03/14 05:02:34;;;;;;;21.20;2.28;;;6.00;99.90;;;;;;5046846;28;20028;-61
2021/03/14 05:05:01;;;;;;;18.00;2.13;;;6.00;99.90;;;;;;5054684;28;20040;-61
2021/03/14 05:07:28;;;;;;;18.25;3.53;;;6.00;99.90;;;;;;5067271;28;20021;-66
2021/03/14 05:09:55;;;;;;;11.93;2.22;;;5.90;99.90;;;;;;5044578;28;20044;-63
2021/03/14 05:12:22;;;;;;;8.27;1.65;;;6.00;99.90;;;;;;5049455;28;20032;-62
2021/03/14 05:14:48;;;;;;;9.63;1.90;;;6.00;99.90;;;;;;5031048;28;20422;-61
2021/03/14 05:17:15;;;;;;;18.58;2.47;;;6.00;99.90;;;;;;5046344;28;20170;-63
2021/03/14 05:19:41;;;;;;;15.15;1.95;;;6.00;99.90;;;;;;5042208;28;20033;-62
2021/03/14 05:22:07;;;;;;;11.80;2.13;;;6.00;99.90;;;;;;5046367;28;20582;-62
2021/03/14 05:24:33;;;;;;;18.42;2.05;;;6.00;99.90;;;;;;5032578;28;20049;-62
2021/03/14 05:27:03;;;;;;;15.25;2.58;;;5.90;99.90;;;;;;5046549;28;20129;-62
2021/03/14 05:29:30;;;;;;;7.68;2.00;;;5.90;99.90;;;;;;5043840;28;20537;-62
2021/03/14 05:31:57;;;;;;;6.78;2.38;;;5.80;99.90;;;;;;5045138;28;20082;-62
2021/03/14 05:34:23;;;;;;;12.38;2.25;;;5.70;99.90;;;;;;5045416;28;20017;-62
2021/03/14 05:36:49;;;;;;;11.38;3.25;;;5.80;99.90;;;;;;5029726;28;20021;-62
2021/03/14 05:39:14;;;;;;;15.95;2.40;;;5.70;99.90;;;;;;5046443;28;20097;-63
2021/03/14 05:41:41;;;;;;;12.35;2.38;;;5.80;99.90;;;;;;5047421;28;20056;-61
2021/03/14 05:44:08;;;;;;;11.57;2.92;;;5.70;99.90;;;;;;5046637;28;20064;-63
2021/03/14 05:46:34;;;;;;;16.15;3.17;;;5.80;99.90;;;;;;5053874;28;20490;-62
2021/03/14 05:49:02;;;;;;;14.18;3.45;;;5.60;99.90;;;;;;5043974;28;20053;-62
2021/03/14 05:51:30;;;;;;;12.27;2.65;;;5.60;99.90;;;;;;5029115;28;20779;-61
2021/03/14 05:53:58;;;;;;;14.35;2.78;;;5.60;99.90;;;;;;5050732;28;20394;-62
2021/03/14 05:56:24;;;;;;;6.40;2.97;;;5.70;99.90;;;;;;5045460;28;20048;-63
2021/03/14 05:58:51;;;;;;;14.82;3.70;;;5.60;99.90;;;;;;5049914;28;20045;-62
2021/03/14 06:01:19;;;;;;;20.33;3.13;;;5.60;99.90;;;;;;5044218;28;20033;-62
2021/03/14 06:03:45;;;;;;;13.40;2.65;;;5.70;99.90;;;;;;5041910;28;20100;-62
2021/03/14 06:06:12;;;;;;;14.95;3.05;;;5.70;99.90;;;;;;5046634;28;20100;-62
2021/03/14 06:08:38;;;;;;;15.52;3.22;;;5.70;99.90;;;;;;5042927;28;20429;-63
2021/03/14 06:11:06;;;;;;;12.65;2.85;;;5.70;99.90;;;;;;5041752;28;20085;-61
2021/03/14 06:13:32;;;;;;;15.35;2.42;;;5.70;99.90;;;;;;5042399;28;20017;-62
2021/03/14 06:15:58;;;;;;;14.85;3.13;;;5.70;99.90;;;;;;5030269;28;20022;-61
2021/03/14 06:18:25;;;;;;;9.35;2.85;;;5.80;99.90;;;;;;5046254;28;20025;-62
2021/03/14 06:20:51;;;;;;;15.50;2.92;;;5.80;99.90;;;;;;5022108;28;20496;-62
2021/03/14 06:23:18;;;;;;;14.38;2.85;;;5.80;99.90;;;;;;5041006;28;20045;-62
2021/03/14 06:25:45;;;;;;;15.40;3.20;;;5.80;99.90;;;;;;5049123;28;20025;-62
2021/03/14 06:28:12;;;;;;;14.27;2.58;;;5.90;99.90;;;;;;5047842;28;20028;-62
2021/03/14 06:30:38;;;;;;;10.77;2.60;;;5.80;99.90;;;;;;5043284;28;20029;-61
2021/03/14 06:33:10;;;;;;;11.48;2.33;;;5.90;99.90;;;;;;5039962;28;20032;-63
2021/03/14 06:35:45;;;;;;;10.60;2.97;;;5.90;99.90;;;;;;5045898;28;20018;-63
2021/03/14 06:38:20;;;;;;;8.07;2.95;;;6.00;99.90;;;;;;5046499;28;20041;-62
2021/03/14 06:40:47;;;;;;;15.30;3.53;;;5.90;99.90;;;;;;5048818;28;20025;-62
2021/03/14 06:43:14;;;;;;;18.30;3.67;;;5.90;99.90;;;;;;5047514;28;20033;-63
2021/03/14 06:45:42;;;;;;;15.02;4.47;;;5.90;99.90;;;;;;5035205;28;20029;-63
2021/03/14 06:48:08;;;;;;;9.48;3.50;;;5.90;99.90;;;;;;5064691;28;20048;-64
2021/03/14 06:50:39;;;;;;;18.73;4.68;;;6.00;99.90;;;;;;5055931;28;20109;-62
2021/03/14 06:53:16;;;;;;;10.32;3.78;;;6.00;99.90;;;;;;5050882;28;20025;-63
2021/03/14 06:55:42;;;;;;;13.23;4.05;;;6.10;99.90;;;;;;5038969;28;20025;-62
2021/03/14 06:58:21;;;;;;;12.90;4.25;;;6.00;99.90;;;;;;5053640;28;20036;-63
2021/03/14 07:01:06;;;;;;;22.77;5.43;;;6.00;99.90;;;;;;5057203;28;20056;-63
2021/03/14 07:03:31;;;;;;;15.98;4.20;;;6.00;99.90;;;;;;5062655;28;20033;-62
2021/03/14 07:06:15;;;;;;;13.20;4.68;;;6.00;99.90;;;;;;5049438;28;20037;-63
2021/03/14 07:08:41;;;;;;;9.15;4.03;;;6.00;99.90;;;;;;5048298;28;20025;-63
2021/03/14 07:11:08;;;;;;;16.40;4.88;;;6.00;99.90;;;;;;5048554;28;20075;-62
2021/03/14 07:13:36;;;;;;;18.00;4.93;;;6.10;99.90;;;;;;5063098;28;20425;-62
2021/03/14 07:16:02;;;;;;;20.67;5.40;;;6.10;99.90;;;;;;5051187;28;20021;-63
2021/03/14 07:18:28;;;;;;;20.92;5.55;;;6.10;99.90;;;;;;5050773;28;20056;-63
2021/03/14 07:20:54;;;;;;;18.55;4.68;;;6.20;99.90;;;;;;5038080;28;20051;-62
2021/03/14 07:23:34;;;;;;;16.15;5.13;;;6.20;99.90;;;;;;5048961;28;20324;-62
2021/03/14 07:26:00;;;;;;;10.93;4.55;;;6.20;99.90;;;;;;5044240;28;20041;-64
2021/03/14 07:28:26;;;;;;;19.08;5.10;;;6.20;99.90;;;;;;5045768;28;20021;-63
2021/03/14 07:30:53;;;;;;;18.90;6.28;;;6.20;99.90;;;;;;5046890;28;20025;-62
2021/03/14 07:33:19;;;;;;;21.70;5.97;;;6.20;99.90;;;;;;5043522;28;20030;-62
2021/03/14 07:35:45;;;;;;;17.90;6.85;;;6.30;99.90;;;;;;5037044;28;20029;-61
2021/03/14 07:38:12;;;;;;;17.08;5.63;;;6.20;99.90;;;;;;5059914;28;20095;-63
2021/03/14 07:40:38;;;;;;;20.45;6.15;;;6.20;99.90;;;;;;5048493;28;20021;-63
2021/03/14 07:43:04;;;;;;;17.65;6.15;;;6.30;99.90;;;;;;5038495;28;20021;-61
2021/03/14 07:45:31;;;;;;;19.45;6.53;;;6.30;99.90;;;;;;5048226;28;20035;-63
2021/03/14 07:47:58;;;;;;;17.27;6.78;;;6.30;99.90;;;;;;5061229;28;20217;-62
2021/03/14 07:50:35;;;;;;;14.20;5.78;;;6.40;99.90;;;;;;5055031;28;20048;-64
2021/03/14 07:53:09;;;;;;;16.65;5.72;;;6.50;99.90;;;;;;5054455;28;20125;-63
2021/03/14 07:55:36;;;;;;;12.40;5.95;;;6.50;99.90;;;;;;5047417;28;20021;-62
2021/03/14 07:58:03;;;;;;;17.45;6.70;;;6.50;99.90;;;;;;5052039;28;20525;-63
2021/03/14 08:00:33;;;;;;;24.10;6.53;;;6.50;99.90;;;;;;5048980;28;20029;-63
2021/03/14 08:03:07;;;;;;;20.40;5.93;;;6.50;99.90;;;;;;5035958;28;20497;-62
2021/03/14 08:05:39;;;;;;;19.10;6.22;;;6.50;99.90;;;;;;5043762;28;20029;-62
2021/03/14 08:08:06;;;;;;;13.25;6.22;;;6.50;99.90;;;;;;5049260;28;20479;-62
2021/03/14 08:10:43;;;;;;;28.17;6.03;;;6.60;99.90;;;;;;5044513;28;20067;-64
2021/03/14 08:13:17;;;;;;;16.30;5.20;;;6.70;99.90;;;;;;5053174;28;20575;-62
2021/03/14 08:15:42;;;;;;;8.98;2.97;;;6.70;99.90;;;;;;5046873;28;20041;-63
2021/03/14 08:18:36;;;;;;;13.98;2.97;;;6.70;99.90;;;;;;5060507;28;20108;-62
2021/03/14 08:21:03;;;;;;;11.00;2.15;;;6.70;99.90;;;;;;5041520;28;20080;-62
2021/03/14 08:23:42;;;;;;;6.25;2.03;;;6.70;99.90;;;;;;5049437;28;20726;-61
2021/03/14 08:26:20;;;;;;;9.30;2.47;;;6.80;99.90;;;;;;5030250;28;20452;-62
2021/03/14 08:29:00;;;;;;;12.02;2.67;;;6.80;99.90;;;;;;5030459;28;20112;-64
2021/03/14 08:31:47;;;;;;;13.55;3.10;;;7.00;99.90;;;;;;5044040;28;20048;-62
2021/03/14 08:34:23;;;;;;;26.65;3.28;;;6.90;99.90;;;;;;5027501;28;20033;-64
2021/03/14 08:36:49;;;;;;;12.05;3.28;;;6.90;99.90;;;;;;5046710;28;20117;-63
2021/03/14 08:39:27;;;;;;;11.40;3.55;;;6.90;99.90;;;;;;5042838;28;20022;-61
2021/03/14 08:42:04;;;;;;;14.05;3.70;;;6.90;99.90;;;;;;5028377;28;20021;-62
2021/03/14 08:44:42;;;;;;;14.88;3.15;;;7.00;99.90;;;;;;5039932;28;20029;-62
2021/03/14 08:47:13;;;;;;;13.20;3.35;;;7.10;99.90;;;;;;5034902;28;20029;-66
2021/03/14 08:49:47;;;;;;;11.82;3.03;;;7.10;99.90;;;;;;5039488;28;20032;-64
2021/03/14 08:52:13;;;;;;;12.95;3.60;;;7.20;99.90;;;;;;5036527;28;20610;-66
2021/03/14 08:54:41;;;;;;;14.02;3.40;;;7.10;99.90;;;;;;5048345;28;20021;-66
2021/03/14 08:57:12;;;;;;;11.23;3.20;;;7.10;99.90;;;;;;5051850;28;20029;-62
2021/03/14 09:00:00;;;;;;;18.00;3.50;;;7.00;99.90;;;;;;5043413;28;20036;-62
2021/03/14 09:02:29;;;;;;;13.45;3.63;;;7.00;99.90;;;;;;5035044;28;20029;-64
2021/03/14 09:05:10;;;;;;;7.07;3.22;;;7.00;99.90;;;;;;5036087;28;20408;-64
2021/03/14 09:07:36;;;;;;;11.13;3.63;;;7.00;99.90;;;;;;5039093;28;20040;-62
2021/03/14 09:10:33;;;;;;;9.90;2.95;;;7.20;99.90;;;;;;5044829;28;20079;-63
2021/03/14 09:13:01;;;;;;;9.25;3.42;;;7.20;99.90;;;;;;5047829;28;20147;-62
2021/03/14 09:15:27;;;;;;;10.90;3.85;;;7.20;99.90;;;;;;5028522;28;20021;-63
2021/03/14 09:17:57;;;;;;;13.50;3.38;;;7.20;99.90;;;;;;5059803;28;20509;-64
2021/03/14 09:20:23;;;;;;;12.75;3.05;;;7.20;99.90;;;;;;5037842;28;20136;-64
2021/03/14 09:22:49;;;;;;;19.55;3.90;;;7.20;99.90;;;;;;5043965;28;20040;-63
2021/03/14 09:25:16;;;;;;;9.00;3.65;;;7.30;99.90;;;;;;5038349;28;20037;-63
2021/03/14 09:27:44;;;;;;;11.48;3.55;;;7.40;99.90;;;;;;5033346;28;20032;-67
2021/03/14 09:30:22;;;;;;;11.00;3.25;;;7.40;99.90;;;;;;5035424;28;20529;-62
2021/03/14 09:33:01;;;;;;;17.45;3.20;;;7.60;99.90;;;;;;5039083;28;20036;-64
2021/03/14 09:35:37;;;;;;;17.02;3.60;;;7.60;99.90;;;;;;5040268;28;20021;-63
2021/03/14 09:38:09;;;;;;;12.43;3.13;;;7.60;99.90;;;;;;5037394;28;20021;-65
2021/03/14 09:40:46;;;;;;;7.28;2.63;;;7.70;99.90;;;;;;5037760;28;20071;-64
2021/03/14 09:43:18;;;;;;;8.45;3.42;;;7.60;99.90;;;;;;5032701;28;20044;-64
2021/03/14 09:45:52;;;;;;;17.15;3.13;;;7.60;99.90;;;;;;5035776;28;20399;-63
2021/03/14 09:48:25;;;;;;;12.70;3.03;;;7.50;99.90;;;;;;5034134;28;20445;-63
2021/03/14 09:51:20;;;;;;;13.55;2.95;;;7.50;99.90;;;;;;5046375;28;20025;-63
2021/03/14 09:53:45;;;;;;;10.88;2.10;;;7.50;99.90;;;;;;5029595;28;20101;-65
2021/03/14 09:56:13;;;;;;;13.85;2.30;;;7.50;99.90;;;;;;5049103;28;20034;-66
2021/03/14 09:58:39;;;;;;;11.70;2.42;;;7.60;99.90;;;;;;5042937;28;20032;-63
2021/03/14 10:01:07;;;;;;;10.52;3.03;;;7.80;99.90;;;;;;5036877;28;20022;-64
2021/03/14 10:03:33;;;;;;;10.05;2.22;;;8.00;99.90;;;;;;5043205;28;20021;-63
2021/03/14 10:06:04;;;;;;;14.88;2.58;;;8.10;99.90;;;;;;5044980;28;20032;-64
2021/03/14 10:08:40;;;;;;;11.18;2.42;;;8.10;99.90;;;;;;5046735;28;20029;-63
2021/03/14 10:11:12;;;;;;;16.58;3.38;;;8.10;99.90;;;;;;5047868;28;20514;-66
2021/03/14 10:13:39;;;;;;;9.60;2.38;;;8.20;99.90;;;;;;5044877;28;20044;-64
2021/03/14 10:16:09;;;;;;;6.47;1.98;;;8.10;99.90;;;;;;5047885;28;20021;-62
2021/03/14 10:18:35;;;;;;;13.07;2.20;;;8.10;99.90;;;;;;5045852;28;20021;-63
2021/03/14 10:21:22;;;;;;;11.30;2.30;;;7.90;99.90;;;;;;5046659;28;20036;-64
2021/03/14 10:23:49;;;;;;;11.98;1.55;;;7.90;99.90;;;;;;5043678;28;20037;-64
2021/03/14 10:26:15;;;;;;;18.95;3.08;;;8.00;99.90;;;;;;5046820;28;20100;-64
2021/03/14 10:28:44;;;;;;;4.68;1.58;;;8.00;99.90;;;;;;5043343;28;20024;-62
2021/03/14 10:31:11;;;;;;;12.07;2.15;;;7.90;99.90;;;;;;5044561;28;20029;-64
2021/03/14 10:33:41;;;;;;;14.23;1.98;;;7.90;99.90;;;;;;5038813;28;20034;-63
2021/03/14 10:36:16;;;;;;;13.20;2.25;;;7.90;99.90;;;;;;5050717;28;20539;-64
2021/03/14 10:38:46;;;;;;;10.45;1.80;;;7.90;99.90;;;;;;5044105;28;20033;-65
2021/03/14 10:41:19;;;;;;;11.77;1.45;;;7.90;99.90;;;;;;5042092;28;20013;-66
2021/03/14 10:43:58;;;;;;;9.82;2.33;;;8.00;99.90;;;;;;5032713;28;20052;-63
2021/03/14 10:46:45;;;;;;;13.10;1.85;;;8.10;99.90;;;;;;5045741;28;20025;-65
2021/03/14 10:49:15;;;;;;;7.63;1.80;;;8.20;99.90;;;;;;5043839;28;20025;-64
2021/03/14 10:51:43;;;;;;;10.10;2.30;;;8.30;99.90;;;;;;5042654;28;20033;-64
2021/03/14 10:54:14;;;;;;;14.15;2.67;;;8.30;99.90;;;;;;5043151;28;20411;-67
2021/03/14 10:56:41;;;;;;;8.98;1.73;;;8.40;99.90;;;;;;5046689;28;20044;-65
2021/03/14 10:59:31;;;;;;;5.75;1.85;;;8.50;99.90;;;;;;5047930;28;20021;-65
2021/03/14 11:02:41;;;;;;;4.78;1.80;;;8.60;99.90;;;;;;5048244;28;20545;-63
2021/03/14 11:05:08;;;;;;;7.93;2.00;;;8.40;99.90;;;;;;5049347;28;20025;-63
2021/03/14 11:07:35;;;;;;;11.50;2.85;;;8.20;99.90;;;;;;5029397;28;20361;-63
2021/03/14 11:10:22;;;;;;;7.85;1.90;;;8.20;99.90;;;;;;5044203;28;20624;-64
2021/03/14 11:12:48;;;;;;;7.45;1.98;;;8.10;99.90;;;;;;5044604;28;20028;-63
2021/03/14 11:15:31;;;;;;;15.52;2.60;;;8.10;99.90;;;;;;5030226;28;20394;-62
2021/03/14 11:17:58;;;;;;;14.23;2.28;;;8.10;99.90;;;;;;5046304;28;20017;-64
2021/03/14 11:20:26;;;;;;;6.78;1.90;;;8.00;99.90;;;;;;5047002;28;20024;-65
2021/03/14 11:22:57;;;;;;;7.72;1.75;;;8.10;99.90;;;;;;5043526;28;20552;-63
2021/03/14 11:25:24;;;;;;;6.85;1.95;;;8.10;99.90;;;;;;5044785;28;20270;-66
2021/03/14 11:27:51;;;;;;;6.45;2.42;;;8.30;99.90;;;;;;5020204;28;20364;-64
2021/03/14 11:30:22;;;;;;;7.90;2.42;;;8.30;99.90;;;;;;5038663;28;20453;-64
2021/03/14 11:32:47;;;;;;;11.07;1.85;;;8.30;99.90;;;;;;5037167;28;20033;-61
2021/03/14 11:35:14;;;;;;;5.47;2.13;;;8.60;99.90;;;;;;5048968;28;20021;-64
2021/03/14 11:37:39;;;;;;;13.15;2.67;;;8.70;99.90;;;;;;5048252;28;20492;-64
2021/03/14 11:40:07;;;;;;;13.50;2.17;;;8.70;99.90;;;;;;5046019;28;20062;-63
2021/03/14 11:42:34;;;;;;;9.85;1.90;;;8.50;99.90;;;;;;5047683;28;20039;-62
2021/03/14 11:45:00;;;;;;;8.23;2.08;;;8.30;99.90;;;;;;5047302;28;20479;-64
2021/03/14 11:47:25;;;;;;;8.50;1.75;;;8.30;99.90;;;;;;5048374;28;20109;-64
2021/03/14 11:49:51;;;;;;;19.30;2.70;;;8.50;99.90;;;;;;5056413;28;20116;-63
2021/03/14 11:52:17;;;;;;;13.00;2.03;;;8.50;99.90;;;;;;5044946;28;20074;-64
2021/03/14 11:54:42;;;;;;;9.88;2.10;;;8.20;99.90;;;;;;5040761;28;20140;-63
2021/03/14 11:57:11;;;;;;;9.18;1.92;;;8.10;99.90;;;;;;5048614;28;20490;-65
2021/03/14 11:59:37;;;;;;;20.38;2.40;;;8.20;99.90;;;;;;5029270;28;20163;-63
2021/03/14 12:02:02;;;;;;;9.60;1.75;;;9.00;99.90;;;;;;5047149;28;20107;-65
2021/03/14 12:04:28;;;;;;;10.50;1.27;;;9.30;99.90;;;;;;5039985;28;20246;-64
2021/03/14 12:06:53;;;;;;;15.50;1.27;;;9.60;99.90;;;;;;5041485;28;20028;-65
2021/03/14 12:09:19;;;;;;;12.88;1.92;;;9.30;99.90;;;;;;5040201;28;20029;-64
2021/03/14 12:11:44;;;;;;;10.18;1.45;;;8.80;99.90;;;;;;5043104;28;20025;-64
2021/03/14 12:14:10;;;;;;;12.80;1.52;;;8.70;99.90;;;;;;5047188;28;20032;-66
2021/03/14 12:16:36;;;;;;;12.63;2.08;;;8.90;99.90;;;;;;5046112;28;20016;-62
2021/03/14 12:19:02;;;;;;;9.48;1.70;;;8.80;99.90;;;;;;5043005;28;20036;-64
2021/03/14 12:21:27;;;;;;;14.75;1.85;;;8.70;99.90;;;;;;5027320;28;20026;-65
2021/03/14 12:23:53;;;;;;;7.60;1.25;;;8.60;99.90;;;;;;5042764;28;20037;-62
2021/03/14 12:26:20;;;;;;;9.30;1.70;;;8.80;99.90;;;;;;5064395;28;20069;-64
2021/03/14 12:28:45;;;;;;;12.00;1.55;;;8.70;99.90;;;;;;5064021;28;20056;-63
2021/03/14 12:31:11;;;;;;;13.15;1.90;;;8.70;99.90;;;;;;5062637;28;20091;-66
2021/03/14 12:33:37;;;;;;;10.85;2.42;;;9.10;99.90;;;;;;5063013;28;20035;-65
2021/03/14 12:36:03;;;;;;;12.80;2.15;;;9.30;99.90;;;;;;5069853;28;20068;-63
2021/03/14 12:38:29;;;;;;;9.43;1.40;;;9.60;99.90;;;;;;5070537;28;20103;-64
2021/03/14 12:40:54;;;;;;;8.88;1.63;;;9.20;99.90;;;;;;5045293;28;20533;-66
2021/03/14 12:43:21;;;;;;;15.07;1.63;;;9.40;99.90;;;;;;5066270;28;20056;-62
2021/03/14 12:45:49;;;;;;;10.75;1.35;;;9.10;99.90;;;;;;5044565;28;20111;-62
2021/03/14 12:48:15;;;;;;;11.80;1.83;;;8.80;99.90;;;;;;5060345;28;20036;-63
2021/03/14 12:50:41;;;;;;;12.38;1.45;;;8.80;99.90;;;;;;5065487;28;20492;-63
2021/03/14 15:36:00;;;;;;;7.22;1.20;;;8.70;99.90;;;;;;5045003;28;20032;-64
2021/03/14 15:38:26;;;;;;;6.95;2.22;;;8.60;99.90;;;;;;5066711;28;20044;-65